sensor_id;sensor_type;location;lat;lon;timestamp;pressure;altitude;pressure_sealevel;temperature;humidity
41312;BME280;27061;41.648;24.568;2022-09-16T00:01:23;85885.16;;;21.86;36.66
41312;BME280;27061;41.648;24.568;2022-09-16T00:03:55;85895.53;;;21.90;37.21
41312;BME280;27061;41.648;24.568;2022-09-16T00:06:28;85870.75;;;21.65;36.84
41312;BME280;27061;41.648;24.568;2022-09-16T00:08:58;85869.28;;;21.66;37.22
41312;BME280;27061;41.648;24.568;2022-09-16T00:11:32;85895.28;;;21.81;37.03
41312;BME280;27061;41.648;24.568;2022-09-16T00:14:01;85884.31;;;21.75;37.01
41312;BME280;27061;41.648;24.568;2022-09-16T00:16:29;85837.41;;;21.42;36.72
41312;BME280;27061;41.648;24.568;2022-09-16T00:18:58;85898.41;;;21.75;37.38
41312;BME280;27061;41.648;24.568;2022-09-16T00:21:26;85887.56;;;21.67;36.88
41312;BME280;27061;41.648;24.568;2022-09-16T00:23:54;85909.56;;;21.77;38.68
41312;BME280;27061;41.648;24.568;2022-09-16T00:26:22;85909.78;;;21.73;37.08
41312;BME280;27061;41.648;24.568;2022-09-16T00:28:50;85892.94;;;21.59;37.82
41312;BME280;27061;41.648;24.568;2022-09-16T00:31:18;85905.13;;;21.68;39.62
41312;BME280;27061;41.648;24.568;2022-09-16T00:33:46;85910.41;;;21.61;40.61
41312;BME280;27061;41.648;24.568;2022-09-16T00:36:18;85897.63;;;21.49;40.89
41312;BME280;27061;41.648;24.568;2022-09-16T00:38:51;85892.94;;;21.44;41.50
41312;BME280;27061;41.648;24.568;2022-09-16T00:41:24;85898.59;;;21.44;41.53
41312;BME280;27061;41.648;24.568;2022-09-16T00:43:57;85898.91;;;21.38;42.25
41312;BME280;27061;41.648;24.568;2022-09-16T00:46:44;85896.25;;;21.48;41.90
41312;BME280;27061;41.648;24.568;2022-09-16T00:49:23;85909.56;;;21.50;42.22
41312;BME280;27061;41.648;24.568;2022-09-16T00:51:55;85892.38;;;21.41;42.24
41312;BME280;27061;41.648;24.568;2022-09-16T00:54:25;85893.25;;;21.38;41.83
41312;BME280;27061;41.648;24.568;2022-09-16T00:56:55;85873.75;;;21.34;40.75
41312;BME280;27061;41.648;24.568;2022-09-16T00:59:29;85890.44;;;21.38;41.54
41312;BME280;27061;41.648;24.568;2022-09-16T01:02:04;85878.91;;;21.29;41.63
41312;BME280;27061;41.648;24.568;2022-09-16T01:04:37;85858.44;;;21.01;42.08
41312;BME280;27061;41.648;24.568;2022-09-16T01:07:09;85858.66;;;20.97;39.50
41312;BME280;27061;41.648;24.568;2022-09-16T01:09:38;85877.44;;;21.15;40.95
41312;BME280;27061;41.648;24.568;2022-09-16T01:12:06;85847.50;;;20.95;39.69
41312;BME280;27061;41.648;24.568;2022-09-16T01:14:34;85883.47;;;21.22;39.59
41312;BME280;27061;41.648;24.568;2022-09-16T01:20:07;85887.94;;;21.17;41.97
41312;BME280;27061;41.648;24.568;2022-09-16T01:31:48;85879.78;;;21.11;39.59
41312;BME280;27061;41.648;24.568;2022-09-16T01:37:16;85873.38;;;21.12;40.12
41312;BME280;27061;41.648;24.568;2022-09-16T01:40:14;85858.63;;;21.12;40.27
41312;BME280;27061;41.648;24.568;2022-09-16T01:43:15;85871.72;;;21.17;39.17
41312;BME280;27061;41.648;24.568;2022-09-16T01:45:53;85878.31;;;21.12;39.21
41312;BME280;27061;41.648;24.568;2022-09-16T01:52:13;85877.94;;;21.05;40.17
41312;BME280;27061;41.648;24.568;2022-09-16T01:54:32;85843.50;;;20.90;39.39
41312;BME280;27061;41.648;24.568;2022-09-16T01:57:10;85878.22;;;21.14;40.09
41312;BME280;27061;41.648;24.568;2022-09-16T01:59:43;85847.88;;;20.87;39.86
41312;BME280;27061;41.648;24.568;2022-09-16T02:02:25;85876.50;;;21.06;40.64
41312;BME280;27061;41.648;24.568;2022-09-16T02:04:57;85860.84;;;21.09;39.30
41312;BME280;27061;41.648;24.568;2022-09-16T02:07:31;85860.66;;;21.13;39.96
41312;BME280;27061;41.648;24.568;2022-09-16T02:10:14;85851.03;;;21.08;39.67
41312;BME280;27061;41.648;24.568;2022-09-16T02:12:45;85852.03;;;21.03;39.58
41312;BME280;27061;41.648;24.568;2022-09-16T02:15:17;85851.16;;;21.06;39.64
41312;BME280;27061;41.648;24.568;2022-09-16T02:17:54;85844.19;;;21.05;39.88
41312;BME280;27061;41.648;24.568;2022-09-16T02:20:25;85819.34;;;20.95;39.75
41312;BME280;27061;41.648;24.568;2022-09-16T02:23:04;85863.88;;;21.20;39.89
41312;BME280;27061;41.648;24.568;2022-09-16T02:25:34;85834.28;;;21.06;39.91
41312;BME280;27061;41.648;24.568;2022-09-16T02:28:07;85853.97;;;21.21;40.27
41312;BME280;27061;41.648;24.568;2022-09-16T02:30:45;85800.63;;;20.90;39.59
41312;BME280;27061;41.648;24.568;2022-09-16T02:33:15;85839.13;;;21.23;40.20
41312;BME280;27061;41.648;24.568;2022-09-16T02:35:46;85831.34;;;21.08;40.07
41312;BME280;27061;41.648;24.568;2022-09-16T02:38:24;85847.47;;;21.25;40.21
41312;BME280;27061;41.648;24.568;2022-09-16T02:40:55;85852.22;;;21.28;39.51
41312;BME280;27061;41.648;24.568;2022-09-16T02:43:24;85846.97;;;21.20;39.79
41312;BME280;27061;41.648;24.568;2022-09-16T02:49:22;85857.38;;;21.24;39.77
41312;BME280;27061;41.648;24.568;2022-09-16T02:52:09;85840.78;;;21.03;40.25
41312;BME280;27061;41.648;24.568;2022-09-16T02:54:52;85827.56;;;20.99;40.01
41312;BME280;27061;41.648;24.568;2022-09-16T02:57:22;85843.69;;;21.15;39.85
41312;BME280;27061;41.648;24.568;2022-09-16T02:59:50;85851.31;;;21.32;40.08
41312;BME280;27061;41.648;24.568;2022-09-16T03:02:19;85840.47;;;21.24;40.74
41312;BME280;27061;41.648;24.568;2022-09-16T03:04:47;85828.81;;;21.17;39.93
41312;BME280;27061;41.648;24.568;2022-09-16T03:07:17;85834.44;;;21.17;40.16
41312;BME280;27061;41.648;24.568;2022-09-16T03:09:46;85819.78;;;21.14;39.97
41312;BME280;27061;41.648;24.568;2022-09-16T03:15:16;85826.59;;;21.19;40.24
41312;BME280;27061;41.648;24.568;2022-09-16T03:23:22;85822.09;;;20.82;40.30
41312;BME280;27061;41.648;24.568;2022-09-16T03:31:38;85840.69;;;20.90;40.31
41312;BME280;27061;41.648;24.568;2022-09-16T03:34:30;85839.56;;;20.85;41.77
41312;BME280;27061;41.648;24.568;2022-09-16T03:37:05;85843.59;;;20.88;42.95
41312;BME280;27061;41.648;24.568;2022-09-16T03:39:35;85791.56;;;20.60;41.32
41312;BME280;27061;41.648;24.568;2022-09-16T03:42:06;85849.13;;;20.90;41.94
41312;BME280;27061;41.648;24.568;2022-09-16T03:44:39;85846.31;;;20.90;41.23
41312;BME280;27061;41.648;24.568;2022-09-16T03:47:07;85847.69;;;20.91;40.46
41312;BME280;27061;41.648;24.568;2022-09-16T03:49:34;85845.94;;;20.83;42.03
41312;BME280;27061;41.648;24.568;2022-09-16T03:52:02;85816.88;;;20.60;40.96
41312;BME280;27061;41.648;24.568;2022-09-16T03:54:32;85816.69;;;20.64;40.02
41312;BME280;27061;41.648;24.568;2022-09-16T03:57:00;85837.22;;;20.75;40.98
41312;BME280;27061;41.648;24.568;2022-09-16T03:59:28;85816.88;;;20.60;40.40
41312;BME280;27061;41.648;24.568;2022-09-16T04:01:56;85826.47;;;20.65;41.59
41312;BME280;27061;41.648;24.568;2022-09-16T04:04:24;85836.56;;;20.74;42.04
41312;BME280;27061;41.648;24.568;2022-09-16T04:06:52;85824.53;;;20.61;41.31
41312;BME280;27061;41.648;24.568;2022-09-16T04:09:21;85859.25;;;20.70;43.54
41312;BME280;27061;41.648;24.568;2022-09-16T04:11:49;85814.25;;;20.56;42.39
41312;BME280;27061;41.648;24.568;2022-09-16T04:14:17;85795.63;;;20.48;41.18
41312;BME280;27061;41.648;24.568;2022-09-16T04:16:44;85835.19;;;20.73;42.76
41312;BME280;27061;41.648;24.568;2022-09-16T04:19:13;85815.88;;;20.36;43.15
41312;BME280;27061;41.648;24.568;2022-09-16T04:21:41;85813.56;;;20.40;42.56
41312;BME280;27061;41.648;24.568;2022-09-16T04:24:08;85836.16;;;20.53;43.10
41312;BME280;27061;41.648;24.568;2022-09-16T04:26:42;85852.84;;;20.72;42.52
41312;BME280;27061;41.648;24.568;2022-09-16T04:29:11;85843.81;;;20.69;42.88
41312;BME280;27061;41.648;24.568;2022-09-16T04:31:39;85831.59;;;20.45;43.03
41312;BME280;27061;41.648;24.568;2022-09-16T04:34:06;85846.66;;;20.55;43.46
41312;BME280;27061;41.648;24.568;2022-09-16T04:36:33;85864.28;;;20.68;43.57
41312;BME280;27061;41.648;24.568;2022-09-16T04:39:02;85856.34;;;20.72;42.48
41312;BME280;27061;41.648;24.568;2022-09-16T04:41:29;85848.75;;;20.69;42.18
41312;BME280;27061;41.648;24.568;2022-09-16T04:43:58;85836.28;;;20.66;41.78
41312;BME280;27061;41.648;24.568;2022-09-16T04:46:27;85834.91;;;20.65;42.47
41312;BME280;27061;41.648;24.568;2022-09-16T04:48:55;85835.38;;;20.69;42.66
41312;BME280;27061;41.648;24.568;2022-09-16T04:51:23;85841.97;;;20.78;41.79
41312;BME280;27061;41.648;24.568;2022-09-16T04:53:55;85828.78;;;20.75;42.01
41312;BME280;27061;41.648;24.568;2022-09-16T04:56:25;85841.19;;;20.80;42.64
41312;BME280;27061;41.648;24.568;2022-09-16T04:58:57;85827.44;;;20.74;42.07
41312;BME280;27061;41.648;24.568;2022-09-16T05:01:26;85819.19;;;20.70;42.75
41312;BME280;27061;41.648;24.568;2022-09-16T05:03:58;85840.00;;;20.90;42.07
41312;BME280;27061;41.648;24.568;2022-09-16T05:06:31;85845.34;;;20.96;42.30
41312;BME280;27061;41.648;24.568;2022-09-16T05:09:00;85842.34;;;21.00;42.06
41312;BME280;27061;41.648;24.568;2022-09-16T05:11:34;85839.41;;;21.02;41.72
41312;BME280;27061;41.648;24.568;2022-09-16T05:14:06;85835.84;;;21.03;41.52
41312;BME280;27061;41.648;24.568;2022-09-16T05:16:34;85833.53;;;20.93;43.23
41312;BME280;27061;41.648;24.568;2022-09-16T05:19:02;85810.63;;;20.87;42.10
41312;BME280;27061;41.648;24.568;2022-09-16T05:21:33;85817.50;;;21.04;41.81
41312;BME280;27061;41.648;24.568;2022-09-16T05:24:03;85811.19;;;21.18;41.60
41312;BME280;27061;41.648;24.568;2022-09-16T05:26:33;85816.97;;;21.14;41.61
41312;BME280;27061;41.648;24.568;2022-09-16T05:29:04;85832.97;;;21.33;41.36
41312;BME280;27061;41.648;24.568;2022-09-16T05:31:35;85820.06;;;21.38;41.54
41312;BME280;27061;41.648;24.568;2022-09-16T05:34:20;85832.44;;;21.43;42.23
41312;BME280;27061;41.648;24.568;2022-09-16T05:36:48;85807.56;;;21.20;43.42
41312;BME280;27061;41.648;24.568;2022-09-16T05:39:17;85843.19;;;21.53;45.11
41312;BME280;27061;41.648;24.568;2022-09-16T05:41:54;85841.75;;;21.54;45.04
41312;BME280;27061;41.648;24.568;2022-09-16T05:44:23;85820.13;;;21.50;44.66
41312;BME280;27061;41.648;24.568;2022-09-16T05:46:52;85797.53;;;21.38;43.06
41312;BME280;27061;41.648;24.568;2022-09-16T05:49:19;85826.00;;;21.59;43.93
41312;BME280;27061;41.648;24.568;2022-09-16T05:51:47;85843.75;;;21.83;44.92
41312;BME280;27061;41.648;24.568;2022-09-16T05:54:16;85782.38;;;21.31;44.76
41312;BME280;27061;41.648;24.568;2022-09-16T05:56:45;85833.59;;;21.75;44.40
41312;BME280;27061;41.648;24.568;2022-09-16T05:59:14;85859.94;;;21.97;43.58
41312;BME280;27061;41.648;24.568;2022-09-16T06:01:43;85854.03;;;22.03;44.66
41312;BME280;27061;41.648;24.568;2022-09-16T06:04:13;85849.59;;;22.06;45.41
41312;BME280;27061;41.648;24.568;2022-09-16T06:06:42;85826.78;;;21.98;45.38
41312;BME280;27061;41.648;24.568;2022-09-16T06:09:14;85850.22;;;22.21;46.29
41312;BME280;27061;41.648;24.568;2022-09-16T06:11:47;85840.63;;;22.16;46.60
41312;BME280;27061;41.648;24.568;2022-09-16T06:14:16;85849.97;;;22.13;43.34
41312;BME280;27061;41.648;24.568;2022-09-16T06:16:45;85830.94;;;22.13;43.04
41312;BME280;27061;41.648;24.568;2022-09-16T06:19:15;85810.81;;;22.07;44.98
41312;BME280;27061;41.648;24.568;2022-09-16T06:21:44;85833.97;;;22.22;45.63
41312;BME280;27061;41.648;24.568;2022-09-16T06:24:14;85833.31;;;22.47;42.48
41312;BME280;27061;41.648;24.568;2022-09-16T06:26:42;85813.47;;;22.36;44.86
41312;BME280;27061;41.648;24.568;2022-09-16T06:29:11;85803.88;;;22.31;46.74
41312;BME280;27061;41.648;24.568;2022-09-16T06:31:39;85805.69;;;22.37;42.93
41312;BME280;27061;41.648;24.568;2022-09-16T06:34:13;85838.19;;;22.48;43.44
41312;BME280;27061;41.648;24.568;2022-09-16T06:36:41;85819.22;;;22.47;44.50
41312;BME280;27061;41.648;24.568;2022-09-16T06:39:12;85838.66;;;22.66;43.99
41312;BME280;27061;41.648;24.568;2022-09-16T06:41:40;85829.84;;;22.59;44.45
41312;BME280;27061;41.648;24.568;2022-09-16T06:44:08;85818.56;;;22.59;42.59
41312;BME280;27061;41.648;24.568;2022-09-16T06:46:35;85851.31;;;22.79;41.85
41312;BME280;27061;41.648;24.568;2022-09-16T06:49:03;85813.81;;;22.68;41.52
41312;BME280;27061;41.648;24.568;2022-09-16T06:51:33;85828.19;;;22.77;43.47
41312;BME280;27061;41.648;24.568;2022-09-16T06:54:03;85855.16;;;22.99;43.65
41312;BME280;27061;41.648;24.568;2022-09-16T06:56:32;85839.13;;;23.08;41.59
41312;BME280;27061;41.648;24.568;2022-09-16T06:59:06;85828.72;;;22.92;41.05
41312;BME280;27061;41.648;24.568;2022-09-16T07:01:34;85825.44;;;23.00;41.64
41312;BME280;27061;41.648;24.568;2022-09-16T07:04:05;85841.38;;;23.18;41.78
41312;BME280;27061;41.648;24.568;2022-09-16T07:06:33;85810.88;;;23.08;39.76
41312;BME280;27061;41.648;24.568;2022-09-16T07:09:21;85835.25;;;23.26;42.49
41312;BME280;27061;41.648;24.568;2022-09-16T07:11:48;85812.00;;;23.13;41.46
41312;BME280;27061;41.648;24.568;2022-09-16T07:14:16;85784.72;;;22.97;41.52
41312;BME280;27061;41.648;24.568;2022-09-16T07:16:44;85812.66;;;23.26;41.85
41312;BME280;27061;41.648;24.568;2022-09-16T07:19:12;85831.25;;;23.47;40.49
41312;BME280;27061;41.648;24.568;2022-09-16T07:21:39;85834.50;;;23.64;39.30
41312;BME280;27061;41.648;24.568;2022-09-16T07:24:10;85844.66;;;23.71;39.96
41312;BME280;27061;41.648;24.568;2022-09-16T07:26:39;85825.78;;;23.68;39.56
41312;BME280;27061;41.648;24.568;2022-09-16T07:29:13;85844.88;;;23.67;41.03
41312;BME280;27061;41.648;24.568;2022-09-16T07:31:42;85848.69;;;23.75;41.87
41312;BME280;27061;41.648;24.568;2022-09-16T07:34:10;85849.72;;;23.82;39.54
41312;BME280;27061;41.648;24.568;2022-09-16T07:36:45;85837.28;;;23.77;39.42
41312;BME280;27061;41.648;24.568;2022-09-16T07:39:14;85847.97;;;23.87;39.09
41312;BME280;27061;41.648;24.568;2022-09-16T07:41:44;85837.72;;;23.81;40.77
41312;BME280;27061;41.648;24.568;2022-09-16T07:44:14;85830.44;;;23.61;39.68
41312;BME280;27061;41.648;24.568;2022-09-16T07:46:42;85830.72;;;23.80;39.46
41312;BME280;27061;41.648;24.568;2022-09-16T07:49:12;85860.38;;;24.04;39.01
41312;BME280;27061;41.648;24.568;2022-09-16T07:51:40;85869.34;;;24.20;39.89
41312;BME280;27061;41.648;24.568;2022-09-16T07:54:10;85856.25;;;24.14;40.83
41312;BME280;27061;41.648;24.568;2022-09-16T07:56:39;85830.31;;;23.99;38.22
41312;BME280;27061;41.648;24.568;2022-09-16T07:59:10;85813.44;;;23.97;38.28
41312;BME280;27061;41.648;24.568;2022-09-16T08:01:47;85789.41;;;23.85;39.75
41312;BME280;27061;41.648;24.568;2022-09-16T08:04:16;85860.72;;;24.34;38.38
41312;BME280;27061;41.648;24.568;2022-09-16T08:06:45;85812.16;;;24.06;38.19
41312;BME280;27061;41.648;24.568;2022-09-16T08:09:12;85847.72;;;24.27;37.36
41312;BME280;27061;41.648;24.568;2022-09-16T08:12:03;85829.53;;;24.24;38.74
41312;BME280;27061;41.648;24.568;2022-09-16T08:14:33;85860.66;;;24.47;37.41
41312;BME280;27061;41.648;24.568;2022-09-16T08:17:00;85846.09;;;24.53;38.75
41312;BME280;27061;41.648;24.568;2022-09-16T08:19:29;85819.47;;;24.37;38.59
41312;BME280;27061;41.648;24.568;2022-09-16T08:21:57;85858.16;;;24.64;37.26
41312;BME280;27061;41.648;24.568;2022-09-16T08:24:24;85798.34;;;24.36;40.48
41312;BME280;27061;41.648;24.568;2022-09-16T08:26:52;85843.94;;;24.77;38.12
41312;BME280;27061;41.648;24.568;2022-09-16T08:29:20;85825.94;;;24.70;39.56
41312;BME280;27061;41.648;24.568;2022-09-16T08:31:48;85809.38;;;24.64;39.68
41312;BME280;27061;41.648;24.568;2022-09-16T08:34:16;85821.19;;;24.90;37.94
41312;BME280;27061;41.648;24.568;2022-09-16T08:36:43;85849.44;;;25.13;36.61
41312;BME280;27061;41.648;24.568;2022-09-16T08:39:11;85835.03;;;25.17;36.72
41312;BME280;27061;41.648;24.568;2022-09-16T08:47:45;85864.06;;;25.39;37.74
41312;BME280;27061;41.648;24.568;2022-09-16T08:50:18;85853.16;;;25.43;37.27
41312;BME280;27061;41.648;24.568;2022-09-16T08:52:49;85870.72;;;25.57;36.11
41312;BME280;27061;41.648;24.568;2022-09-16T08:55:29;85853.16;;;25.43;35.10
41312;BME280;27061;41.648;24.568;2022-09-16T08:58:06;85839.38;;;25.37;35.34
41312;BME280;27061;41.648;24.568;2022-09-16T09:00:39;85840.63;;;25.51;36.61
41312;BME280;27061;41.648;24.568;2022-09-16T09:05:57;85814.69;;;25.46;34.98
41312;BME280;27061;41.648;24.568;2022-09-16T09:08:55;85856.72;;;25.76;35.22
41312;BME280;27061;41.648;24.568;2022-09-16T09:11:48;85826.19;;;25.66;34.07
41312;BME280;27061;41.648;24.568;2022-09-16T09:25:52;85847.13;;;25.81;35.89
41312;BME280;27061;41.648;24.568;2022-09-16T09:31:09;85801.38;;;25.77;34.05
41312;BME280;27061;41.648;24.568;2022-09-16T09:34:03;85824.69;;;26.09;34.21
41312;BME280;27061;41.648;24.568;2022-09-16T09:36:39;85832.81;;;26.15;34.20
41312;BME280;27061;41.648;24.568;2022-09-16T09:45:20;85796.59;;;26.27;34.55
41312;BME280;27061;41.648;24.568;2022-09-16T09:47:56;85812.25;;;26.47;35.61
41312;BME280;27061;41.648;24.568;2022-09-16T09:50:29;85802.75;;;26.50;32.11
41312;BME280;27061;41.648;24.568;2022-09-16T09:53:25;85794.00;;;26.44;33.05
41312;BME280;27061;41.648;24.568;2022-09-16T09:56:03;85832.31;;;26.64;33.23
41312;BME280;27061;41.648;24.568;2022-09-16T09:58:39;85787.22;;;26.49;33.12
41312;BME280;27061;41.648;24.568;2022-09-16T10:01:09;85819.59;;;26.63;34.17
41312;BME280;27061;41.648;24.568;2022-09-16T10:03:37;85809.88;;;26.60;32.97
41312;BME280;27061;41.648;24.568;2022-09-16T10:06:06;85777.91;;;26.40;34.79
41312;BME280;27061;41.648;24.568;2022-09-16T10:08:49;85801.59;;;26.77;33.10
41312;BME280;27061;41.648;24.568;2022-09-16T10:11:24;85791.84;;;26.74;31.59
41312;BME280;27061;41.648;24.568;2022-09-16T10:13:57;85799.19;;;26.60;32.57
41312;BME280;27061;41.648;24.568;2022-09-16T10:16:38;85822.81;;;26.78;32.13
41312;BME280;27061;41.648;24.568;2022-09-16T10:19:18;85807.53;;;26.73;32.80
41312;BME280;27061;41.648;24.568;2022-09-16T10:22:11;85795.66;;;26.71;32.43
41312;BME280;27061;41.648;24.568;2022-09-16T10:24:53;85801.53;;;26.58;31.79
41312;BME280;27061;41.648;24.568;2022-09-16T10:27:26;85786.13;;;26.55;33.94
41312;BME280;27061;41.648;24.568;2022-09-16T10:35:39;85803.66;;;26.68;31.59
41312;BME280;27061;41.648;24.568;2022-09-16T10:38:20;85800.09;;;26.78;33.16
41312;BME280;27061;41.648;24.568;2022-09-16T10:41:16;85789.25;;;26.81;32.25
41312;BME280;27061;41.648;24.568;2022-09-16T10:44:10;85796.13;;;26.84;30.69
41312;BME280;27061;41.648;24.568;2022-09-16T10:46:58;85809.66;;;26.94;33.17
41312;BME280;27061;41.648;24.568;2022-09-16T10:49:51;85821.03;;;26.83;32.50
41312;BME280;27061;41.648;24.568;2022-09-16T10:52:41;85797.41;;;26.76;32.96
41312;BME280;27061;41.648;24.568;2022-09-16T10:57:46;85815.16;;;26.66;31.43
41312;BME280;27061;41.648;24.568;2022-09-16T11:00:16;85797.66;;;26.72;33.23
41312;BME280;27061;41.648;24.568;2022-09-16T11:05:28;85776.03;;;26.77;32.06
41312;BME280;27061;41.648;24.568;2022-09-16T11:08:20;85780.31;;;26.87;32.90
41312;BME280;27061;41.648;24.568;2022-09-16T11:11:40;85778.72;;;26.79;33.42
41312;BME280;27061;41.648;24.568;2022-09-16T11:19:37;85762.38;;;27.10;32.98
41312;BME280;27061;41.648;24.568;2022-09-16T11:33:42;85762.59;;;27.36;31.37
41312;BME280;27061;41.648;24.568;2022-09-16T11:39:05;85759.19;;;27.44;32.12
41312;BME280;27061;41.648;24.568;2022-09-16T11:42:26;85758.66;;;27.41;34.70
41312;BME280;27061;41.648;24.568;2022-09-16T11:55:49;85739.78;;;27.27;32.59
41312;BME280;27061;41.648;24.568;2022-09-16T11:59:10;85721.72;;;27.22;31.99
41312;BME280;27061;41.648;24.568;2022-09-16T12:01:30;85727.91;;;27.44;32.01
41312;BME280;27061;41.648;24.568;2022-09-16T12:04:19;85718.47;;;27.56;32.24
41312;BME280;27061;41.648;24.568;2022-09-16T12:09:57;85739.97;;;27.63;30.75
41312;BME280;27061;41.648;24.568;2022-09-16T12:12:31;85715.69;;;27.45;31.76
41312;BME280;27061;41.648;24.568;2022-09-16T12:15:18;85708.97;;;27.40;31.74
41312;BME280;27061;41.648;24.568;2022-09-16T12:17:55;85735.00;;;27.34;31.50
41312;BME280;27061;41.648;24.568;2022-09-16T12:20:29;85689.41;;;27.17;31.21
41312;BME280;27061;41.648;24.568;2022-09-16T12:23:08;85700.75;;;27.36;32.21
41312;BME280;27061;41.648;24.568;2022-09-16T12:34:33;85682.59;;;27.42;32.54
41312;BME280;27061;41.648;24.568;2022-09-16T12:37:22;85690.59;;;27.58;34.35
41312;BME280;27061;41.648;24.568;2022-09-16T12:39:51;85673.53;;;27.58;33.62
41312;BME280;27061;41.648;24.568;2022-09-16T12:56:53;85707.41;;;27.71;31.52
41312;BME280;27061;41.648;24.568;2022-09-16T13:02:34;85703.59;;;27.55;31.12
41312;BME280;27061;41.648;24.568;2022-09-16T13:05:33;85709.72;;;27.68;33.91
41312;BME280;27061;41.648;24.568;2022-09-16T13:08:05;85684.81;;;27.50;31.06
41312;BME280;27061;41.648;24.568;2022-09-16T13:10:43;85668.00;;;27.37;32.11
41312;BME280;27061;41.648;24.568;2022-09-16T13:13:41;85697.31;;;27.63;33.16
41312;BME280;27061;41.648;24.568;2022-09-16T13:16:09;85645.44;;;27.16;30.93
41312;BME280;27061;41.648;24.568;2022-09-16T13:18:40;85693.72;;;27.54;30.86
41312;BME280;27061;41.648;24.568;2022-09-16T13:21:39;85716.38;;;27.84;31.57
41312;BME280;27061;41.648;24.568;2022-09-16T13:24:12;85718.31;;;27.77;31.52
41312;BME280;27061;41.648;24.568;2022-09-16T13:26:43;85688.78;;;27.63;32.23
41312;BME280;27061;41.648;24.568;2022-09-16T13:29:37;85720.19;;;27.81;31.31
41312;BME280;27061;41.648;24.568;2022-09-16T13:32:55;85680.72;;;27.57;31.69
41312;BME280;27061;41.648;24.568;2022-09-16T13:37:52;85709.84;;;27.86;33.04
41312;BME280;27061;41.648;24.568;2022-09-16T13:40:27;85698.00;;;27.64;31.60
41312;BME280;27061;41.648;24.568;2022-09-16T13:45:41;85669.47;;;27.55;33.22
41312;BME280;27061;41.648;24.568;2022-09-16T13:48:17;85665.06;;;27.48;32.66
41312;BME280;27061;41.648;24.568;2022-09-16T13:50:50;85688.84;;;27.72;34.10
41312;BME280;27061;41.648;24.568;2022-09-16T13:53:30;85695.78;;;27.84;32.78
41312;BME280;27061;41.648;24.568;2022-09-16T14:04:51;85690.75;;;28.12;33.21
41312;BME280;27061;41.648;24.568;2022-09-16T14:07:49;85702.34;;;28.19;33.76
41312;BME280;27061;41.648;24.568;2022-09-16T14:13:39;85679.28;;;28.23;33.72
41312;BME280;27061;41.648;24.568;2022-09-16T14:16:21;85695.13;;;28.39;33.94
41312;BME280;27061;41.648;24.568;2022-09-16T14:18:58;85685.16;;;28.29;31.96
41312;BME280;27061;41.648;24.568;2022-09-16T14:21:27;85693.56;;;28.31;33.30
41312;BME280;27061;41.648;24.568;2022-09-16T14:23:54;85688.91;;;28.36;32.76
41312;BME280;27061;41.648;24.568;2022-09-16T14:26:33;85657.44;;;28.11;34.65
41312;BME280;27061;41.648;24.568;2022-09-16T14:29:02;85667.16;;;28.14;34.15
41312;BME280;27061;41.648;24.568;2022-09-16T14:31:32;85696.94;;;28.06;33.40
41312;BME280;27061;41.648;24.568;2022-09-16T14:34:02;85673.59;;;27.95;33.32
41312;BME280;27061;41.648;24.568;2022-09-16T14:36:36;85666.66;;;27.83;33.31
41312;BME280;27061;41.648;24.568;2022-09-16T14:41:37;85673.94;;;27.72;33.50
41312;BME280;27061;41.648;24.568;2022-09-16T14:46:51;85681.97;;;27.69;34.79
41312;BME280;27061;41.648;24.568;2022-09-16T14:49:35;85660.28;;;27.36;35.75
41312;BME280;27061;41.648;24.568;2022-09-16T14:52:04;85676.38;;;27.58;35.71
41312;BME280;27061;41.648;24.568;2022-09-16T14:54:44;85682.44;;;27.44;35.61
41312;BME280;27061;41.648;24.568;2022-09-16T14:57:19;85685.38;;;27.33;35.57
41312;BME280;27061;41.648;24.568;2022-09-16T14:59:51;85662.19;;;27.01;35.29
41312;BME280;27061;41.648;24.568;2022-09-16T15:04:54;85659.84;;;27.03;35.67
41312;BME280;27061;41.648;24.568;2022-09-16T15:07:34;85658.72;;;26.89;35.98
41312;BME280;27061;41.648;24.568;2022-09-16T15:10:24;85670.38;;;26.85;37.07
41312;BME280;27061;41.648;24.568;2022-09-16T15:13:11;85658.25;;;26.57;35.94
41312;BME280;27061;41.648;24.568;2022-09-16T15:15:53;85670.81;;;26.79;36.42
41312;BME280;27061;41.648;24.568;2022-09-16T15:18:26;85661.22;;;26.55;37.05
41312;BME280;27061;41.648;24.568;2022-09-16T15:21:06;85664.97;;;26.62;37.69
41312;BME280;27061;41.648;24.568;2022-09-16T15:23:36;85678.41;;;26.72;37.25
41312;BME280;27061;41.648;24.568;2022-09-16T15:26:28;85677.38;;;26.67;38.33
41312;BME280;27061;41.648;24.568;2022-09-16T15:29:00;85677.66;;;26.63;37.13
41312;BME280;27061;41.648;24.568;2022-09-16T15:31:36;85672.38;;;26.68;39.01
41312;BME280;27061;41.648;24.568;2022-09-16T15:47:24;85687.78;;;26.41;39.52
41312;BME280;27061;41.648;24.568;2022-09-16T15:49:58;85685.59;;;26.41;39.34
41312;BME280;27061;41.648;24.568;2022-09-16T15:52:26;85685.03;;;26.09;39.29
41312;BME280;27061;41.648;24.568;2022-09-16T15:54:59;85697.06;;;26.09;39.99
41312;BME280;27061;41.648;24.568;2022-09-16T15:57:39;85704.91;;;25.98;40.06
41312;BME280;27061;41.648;24.568;2022-09-16T16:00:10;85694.81;;;25.91;40.87
41312;BME280;27061;41.648;24.568;2022-09-16T16:02:59;85699.31;;;25.66;41.03
41312;BME280;27061;41.648;24.568;2022-09-16T16:05:29;85698.94;;;25.62;41.62
41312;BME280;27061;41.648;24.568;2022-09-16T16:07:59;85691.38;;;25.37;42.35
41312;BME280;27061;41.648;24.568;2022-09-16T16:10:35;85700.28;;;25.31;42.59
41312;BME280;27061;41.648;24.568;2022-09-16T16:13:03;85694.88;;;25.16;42.97
41312;BME280;27061;41.648;24.568;2022-09-16T16:15:35;85679.91;;;25.07;42.88
41312;BME280;27061;41.648;24.568;2022-09-16T16:18:07;85707.69;;;25.15;43.89
41312;BME280;27061;41.648;24.568;2022-09-16T16:20:36;85713.91;;;25.07;44.29